Time;durP1;ratioP1;P1;durP2;ratioP2;P2;SDS_P1;SDS_P2;PMS_P1;PMS_P2;Temp;Humidity;BMP_temperature;BMP_pressure;BME280_temperature;BME280_humidity;BME280_pressure;Samples;Min_cycle;Max_cycle;Signal;HPM_P1;HPM_P2
2021/07/25 00:01:39;;;;;;;9.18;5.40;;;18.60;99.90;;;;;;6705014;88;20194;-78
2021/07/25 00:11:40;;;;;;;8.50;5.60;;;18.30;99.90;;;;;;6684167;88;20191;-78
2021/07/25 00:21:40;;;;;;;9.90;5.80;;;18.20;99.90;;;;;;6709698;88;20183;-77
2021/07/25 00:31:41;;;;;;;11.20;6.03;;;17.80;99.90;;;;;;6706422;88;20219;-78
2021/07/25 00:41:41;;;;;;;9.95;6.55;;;17.90;99.90;;;;;;6705373;88;20672;-77
2021/07/25 00:51:43;;;;;;;10.13;6.35;;;17.70;99.90;;;;;;6712418;88;20247;-77
2021/07/25 01:01:44;;;;;;;9.95;5.28;;;17.60;99.90;;;;;;6701809;88;20328;-78
2021/07/25 01:11:53;;;;;;;8.07;5.90;;;17.50;99.90;;;;;;6702836;88;20195;-77
2021/07/25 01:21:54;;;;;;;16.42;7.35;;;17.50;99.90;;;;;;6704102;88;20203;-76
2021/07/25 01:31:55;;;;;;;13.50;7.75;;;17.60;99.90;;;;;;6704365;88;20702;-77
2021/07/25 01:41:55;;;;;;;11.63;6.95;;;17.50;99.90;;;;;;6705104;88;20998;-76
2021/07/25 01:51:56;;;;;;;11.57;7.43;;;17.40;99.90;;;;;;6707274;88;20263;-76
2021/07/25 02:01:56;;;;;;;12.18;7.95;;;17.40;99.90;;;;;;6706429;88;20751;-77
2021/07/25 02:11:57;;;;;;;16.80;9.55;;;17.40;99.90;;;;;;6702760;88;20198;-77
2021/07/25 02:21:58;;;;;;;18.45;10.23;;;17.30;99.90;;;;;;6702399;88;20260;-78
2021/07/25 02:31:58;;;;;;;15.27;9.73;;;17.20;99.90;;;;;;6699494;88;20206;-78
2021/07/25 02:41:59;;;;;;;15.27;9.82;;;17.00;99.90;;;;;;6698796;88;20369;-77
2021/07/25 02:52:02;;;;;;;16.62;9.98;;;17.20;99.90;;;;;;6699627;88;20211;-77
2021/07/25 03:02:02;;;;;;;15.13;9.48;;;17.10;99.90;;;;;;6708806;88;20279;-76
2021/07/25 03:12:03;;;;;;;15.30;8.63;;;17.20;99.90;;;;;;6680246;88;20196;-76
2021/07/25 03:22:07;;;;;;;15.40;9.23;;;17.00;99.90;;;;;;6627235;89;20214;-77
2021/07/25 03:32:07;;;;;;;17.52;9.57;;;16.90;99.90;;;;;;6688191;88;20198;-76
2021/07/25 03:42:08;;;;;;;18.17;10.68;;;16.80;99.90;;;;;;6696348;88;20677;-77
2021/07/25 03:52:10;;;;;;;18.05;10.18;;;16.60;99.90;;;;;;6694061;88;20207;-77
2021/07/25 04:02:11;;;;;;;16.60;10.23;;;16.50;99.90;;;;;;6695725;88;20666;-76
2021/07/25 04:12:11;;;;;;;22.30;12.75;;;16.70;99.90;;;;;;6678520;88;20227;-76
2021/07/25 04:22:12;;;;;;;21.42;13.02;;;16.60;99.90;;;;;;6697823;88;20203;-76
2021/07/25 04:32:13;;;;;;;25.08;15.57;;;16.70;99.90;;;;;;6696129;88;20642;-76
2021/07/25 04:42:25;;;;;;;31.45;15.88;;;16.70;99.90;;;;;;6696088;88;20699;-77
2021/07/25 04:52:29;;;;;;;26.65;14.40;;;16.60;99.90;;;;;;6696151;88;20225;-77
2021/07/25 05:02:31;;;;;;;21.45;13.15;;;16.80;99.90;;;;;;6696299;88;20192;-77
2021/07/25 05:12:33;;;;;;;17.60;11.30;;;16.80;99.90;;;;;;6660462;88;20676;-76
2021/07/25 05:22:46;;;;;;;20.77;11.45;;;17.00;99.90;;;;;;6627033;89;20210;-76
2021/07/25 05:32:47;;;;;;;15.85;10.70;;;17.30;99.90;;;;;;6628385;89;20271;-76
2021/07/25 05:42:48;;;;;;;17.87;9.68;;;17.70;99.90;;;;;;6627831;88;20217;-77
2021/07/25 05:52:51;;;;;;;18.65;11.30;;;18.20;99.90;;;;;;6627528;89;20237;-76
2021/07/25 06:03:02;;;;;;;14.57;10.25;;;18.20;99.90;;;;;;6665349;88;20195;-76
2021/07/25 06:13:04;;;;;;;13.13;8.10;;;18.40;99.90;;;;;;6697136;88;20756;-76
2021/07/25 06:23:05;;;;;;;19.52;7.82;;;18.90;99.90;;;;;;6697832;88;20182;-75
2021/07/25 06:33:08;;;;;;;8.23;5.95;;;19.30;99.90;;;;;;6697363;88;20243;-77
2021/07/25 06:43:08;;;;;;;11.02;4.85;;;19.70;99.90;;;;;;6699011;88;20198;-77
2021/07/25 06:53:09;;;;;;;7.72;4.68;;;19.70;99.90;;;;;;6696722;88;20215;-76
2021/07/25 07:03:09;;;;;;;8.73;4.85;;;20.10;99.90;;;;;;6696551;88;20658;-76
2021/07/25 07:13:13;;;;;;;8.40;4.07;;;20.50;99.90;;;;;;6657531;88;20223;-75
2021/07/25 07:23:16;;;;;;;6.62;4.00;;;20.60;99.90;;;;;;6627244;89;20258;-76
2021/07/25 07:33:21;;;;;;;7.97;4.20;;;20.60;99.90;;;;;;6626337;89;20222;-76
2021/07/25 07:43:22;;;;;;;10.15;4.00;;;20.80;99.90;;;;;;6632858;89;20314;-76
2021/07/25 07:53:23;;;;;;;8.10;3.80;;;21.70;99.90;;;;;;6638158;89;20218;-76
2021/07/25 08:03:24;;;;;;;6.68;3.62;;;22.40;99.90;;;;;;6644661;89;20245;-77
2021/07/25 08:13:24;;;;;;;8.95;3.50;;;22.10;99.90;;;;;;6630155;89;20208;-76
2021/07/25 08:23:25;;;;;;;5.28;2.90;;;22.80;99.90;;;;;;6626266;89;20204;-76
2021/07/25 08:33:25;;;;;;;4.43;3.03;;;23.70;99.90;;;;;;6626162;89;20322;-77
2021/07/25 08:43:36;;;;;;;5.72;3.28;;;24.60;99.90;;;;;;6626266;89;20246;-76
2021/07/25 08:53:46;;;;;;;7.37;3.00;;;24.80;99.90;;;;;;6625685;89;20254;-77
2021/07/25 09:03:46;;;;;;;6.90;3.00;;;25.00;99.90;;;;;;6639909;88;20863;-75
2021/07/25 09:13:47;;;;;;;6.23;4.10;;;25.00;99.90;;;;;;6626162;89;20227;-76
2021/07/25 09:23:47;;;;;;;6.05;2.60;;;26.30;99.90;;;;;;6641001;88;20690;-78
2021/07/25 09:33:48;;;;;;;8.48;3.10;;;27.60;99.90;;;;;;6696470;88;20181;-75
2021/07/25 09:43:59;;;;;;;4.03;2.60;;;26.90;99.90;;;;;;6695244;88;20325;-76
2021/07/25 09:54:03;;;;;;;3.60;1.85;;;26.00;99.90;;;;;;6695040;88;20647;-76
2021/07/25 10:04:23;;;;;;;3.55;1.60;;;26.30;99.90;;;;;;6695843;88;20907;-76
2021/07/25 10:14:25;;;;;;;4.18;1.60;;;26.90;99.90;;;;;;6697739;88;20269;-76
2021/07/25 10:24:27;;;;;;;4.68;1.70;;;27.20;99.80;;;;;;6697879;88;20190;-77
2021/07/25 10:34:30;;;;;;;3.20;1.60;;;27.90;99.90;;;;;;6698216;88;20303;-77
2021/07/25 10:44:32;;;;;;;2.25;1.40;;;27.20;99.90;;;;;;6697922;88;20197;-77
2021/07/25 10:54:34;;;;;;;4.47;1.70;;;27.40;99.90;;;;;;6704463;88;20313;-77
2021/07/25 11:04:53;;;;;;;2.90;1.37;;;26.90;99.90;;;;;;6698551;88;20257;-77
2021/07/25 11:14:59;;;;;;;2.78;1.48;;;26.30;99.90;;;;;;6699367;88;20322;-80
2021/07/25 11:25:00;;;;;;;3.42;1.70;;;26.80;99.90;;;;;;6680463;88;20644;-78
2021/07/25 11:35:07;;;;;;;3.12;1.60;;;28.60;98.10;;;;;;6681725;88;20215;-77
2021/07/25 11:45:08;;;;;;;3.67;1.67;;;29.20;96.70;;;;;;6680745;88;20214;-77
2021/07/25 11:55:09;;;;;;;3.92;1.55;;;30.30;96.20;;;;;;6680397;88;20207;-76
2021/07/25 12:05:11;;;;;;;3.45;1.60;;;29.20;95.10;;;;;;6680913;88;20674;-77
2021/07/25 12:15:12;;;;;;;3.97;1.50;;;29.00;96.70;;;;;;6680931;88;20651;-76
2021/07/25 12:25:13;;;;;;;5.47;1.62;;;29.10;95.00;;;;;;6680773;88;20274;-78
2021/07/25 12:35:16;;;;;;;3.58;1.50;;;28.50;97.00;;;;;;6681271;88;20194;-76
2021/07/25 12:45:33;;;;;;;3.65;1.50;;;30.20;93.40;;;;;;6690435;88;20234;-76
2021/07/25 12:55:34;;;;;;;3.12;1.42;;;29.70;91.80;;;;;;6694844;88;20248;-76
2021/07/25 13:05:34;;;;;;;2.50;1.30;;;29.40;90.10;;;;;;6688095;88;20177;-80
2021/07/25 13:15:35;;;;;;;4.57;1.65;;;30.60;85.10;;;;;;6698108;89;20243;-76
2021/07/25 13:25:36;;;;;;;3.10;1.77;;;29.20;86.50;;;;;;6679834;89;20342;-76
2021/07/25 13:35:37;;;;;;;2.50;1.50;;;29.40;87.80;;;;;;6679681;89;20230;-77
2021/07/25 13:45:44;;;;;;;3.28;1.40;;;29.00;90.60;;;;;;6686674;88;20223;-77
2021/07/25 13:55:45;;;;;;;2.40;1.52;;;28.80;88.40;;;;;;6682486;88;20183;-79
2021/07/25 14:05:46;;;;;;;3.10;1.30;;;30.30;88.30;;;;;;6683733;88;20325;-77
2021/07/25 14:15:46;;;;;;;3.70;1.60;;;30.00;88.00;;;;;;6699492;88;20193;-76
2021/07/25 14:25:47;;;;;;;2.83;1.60;;;30.80;83.20;;;;;;6700313;88;20924;-76
2021/07/25 14:35:47;;;;;;;2.92;1.45;;;30.50;82.20;;;;;;6701132;88;20193;-78
2021/07/25 14:45:48;;;;;;;3.20;1.27;;;28.90;84.30;;;;;;6700435;88;20226;-78
2021/07/25 14:55:48;;;;;;;3.90;1.80;;;27.10;91.00;;;;;;6700069;88;20233;-78
2021/07/25 15:05:49;;;;;;;3.97;1.75;;;27.40;92.70;;;;;;6699860;88;20206;-77
2021/07/25 15:15:49;;;;;;;2.78;1.50;;;27.40;95.30;;;;;;6699572;88;20265;-78
2021/07/25 15:25:50;;;;;;;2.83;1.65;;;26.60;96.60;;;;;;6699278;88;20232;-77
2021/07/25 15:35:51;;;;;;;3.15;1.62;;;27.50;96.60;;;;;;6699854;88;20219;-78
2021/07/25 15:46:04;;;;;;;3.85;1.62;;;28.00;96.90;;;;;;6700094;88;20249;-76
2021/07/25 15:56:05;;;;;;;;;;;27.30;96.30;;;;;;6705192;88;20193;-79
2021/07/25 16:06:17;;;;;;;2.12;1.40;;;27.30;94.50;;;;;;6705576;88;20120;-79
2021/07/25 16:16:19;;;;;;;3.17;1.60;;;27.70;93.00;;;;;;6701390;88;20300;-80
2021/07/25 16:26:21;;;;;;;4.47;2.20;;;27.80;94.60;;;;;;6704926;88;20245;-79
2021/07/25 16:36:23;;;;;;;3.55;2.12;;;27.60;97.60;;;;;;6704797;88;20287;-79
2021/07/25 16:46:24;;;;;;;3.03;1.50;;;27.70;96.70;;;;;;6702841;88;20205;-79
2021/07/25 16:56:24;;;;;;;3.97;2.00;;;26.20;99.60;;;;;;6703844;88;20202;-79
2021/07/25 17:06:25;;;;;;;3.50;1.73;;;25.80;99.90;;;;;;6700482;88;20202;-78
2021/07/25 17:16:27;;;;;;;4.57;2.00;;;25.60;99.90;;;;;;6696722;88;20685;-77
2021/07/25 17:26:31;;;;;;;3.08;1.90;;;25.00;99.90;;;;;;6696679;88;20732;-78
2021/07/25 17:36:31;;;;;;;3.15;1.80;;;24.80;99.90;;;;;;6679115;89;20216;-78
2021/07/25 17:46:32;;;;;;;3.55;1.80;;;24.50;99.90;;;;;;6679145;89;20202;-76
2021/07/25 17:56:34;;;;;;;3.28;1.90;;;24.40;99.90;;;;;;6679423;89;20665;-78
2021/07/25 18:06:35;;;;;;;4.10;2.10;;;24.30;99.90;;;;;;6688406;89;20286;-79
2021/07/25 18:16:35;;;;;;;4.60;2.08;;;24.10;99.90;;;;;;6692720;89;20228;-76
2021/07/25 18:26:36;;;;;;;4.57;2.15;;;24.10;99.90;;;;;;6702185;88;20185;-76
2021/07/25 18:36:39;;;;;;;4.30;2.42;;;24.00;99.90;;;;;;6688288;88;20175;-76
2021/07/25 18:46:39;;;;;;;4.80;2.57;;;23.80;99.90;;;;;;6681949;88;20244;-75
2021/07/25 18:56:41;;;;;;;7.65;2.33;;;23.70;99.90;;;;;;6681355;88;20665;-75
2021/07/25 19:06:42;;;;;;;3.30;2.30;;;23.60;99.90;;;;;;6680942;88;20208;-75
2021/07/25 19:16:42;;;;;;;4.33;2.57;;;23.50;99.90;;;;;;6680916;88;20202;-76
2021/07/25 19:26:43;;;;;;;3.30;2.10;;;23.20;99.90;;;;;;6681428;88;20212;-77
2021/07/25 19:36:45;;;;;;;3.92;2.20;;;23.00;99.90;;;;;;6690466;88;20222;-76
2021/07/25 19:46:45;;;;;;;5.60;2.45;;;22.80;99.90;;;;;;6681383;88;20334;-75
2021/07/25 19:56:46;;;;;;;5.80;2.42;;;22.70;99.90;;;;;;6681600;88;20202;-77
2021/07/25 20:06:47;;;;;;;4.73;2.43;;;22.50;99.90;;;;;;6681982;88;20302;-80
2021/07/25 20:16:48;;;;;;;4.68;2.50;;;22.20;99.90;;;;;;6683434;88;20278;-78
2021/07/25 20:26:48;;;;;;;4.18;2.50;;;22.00;99.90;;;;;;6682772;88;20361;-77
2021/07/25 20:36:49;;;;;;;3.85;2.35;;;21.80;99.90;;;;;;6682678;88;20242;-78
2021/07/25 20:46:50;;;;;;;5.10;2.90;;;21.50;99.90;;;;;;6681223;88;20208;-77
2021/07/25 20:56:50;;;;;;;5.97;2.60;;;21.30;99.90;;;;;;6680674;88;20182;-77
2021/07/25 21:06:51;;;;;;;4.50;2.75;;;21.10;99.90;;;;;;6681010;88;20209;-77
2021/07/25 21:16:52;;;;;;;3.70;2.50;;;21.20;99.90;;;;;;6680679;89;20191;-77
2021/07/25 21:26:52;;;;;;;5.93;2.60;;;21.10;99.90;;;;;;6680713;89;20207;-76
2021/07/25 21:36:53;;;;;;;5.37;2.72;;;21.10;99.90;;;;;;6681034;89;20189;-78
2021/07/25 21:46:54;;;;;;;5.40;2.50;;;21.00;99.90;;;;;;6682214;89;20244;-76
2021/07/25 21:56:54;;;;;;;4.60;2.50;;;21.10;99.90;;;;;;6681194;89;20204;-77
2021/07/25 22:06:56;;;;;;;4.53;2.60;;;21.00;99.90;;;;;;6683326;88;20637;-81
2021/07/25 22:16:56;;;;;;;3.70;2.12;;;20.70;99.90;;;;;;6682690;88;20210;-77
2021/07/25 22:26:57;;;;;;;5.12;2.20;;;20.50;99.90;;;;;;6682827;88;20383;-76
2021/07/25 22:36:57;;;;;;;4.65;1.98;;;20.40;99.90;;;;;;6690916;88;20208;-77
2021/07/25 22:46:58;;;;;;;5.50;2.05;;;20.40;99.90;;;;;;6682369;88;20256;-78
2021/07/25 22:57:01;;;;;;;3.35;2.00;;;20.20;99.90;;;;;;6683242;88;20832;-77
2021/07/25 23:07:02;;;;;;;3.42;2.00;;;20.00;99.90;;;;;;6686745;88;20186;-81
2021/07/25 23:17:02;;;;;;;4.50;2.05;;;19.80;99.90;;;;;;6700994;88;20285;-78
2021/07/25 23:27:03;;;;;;;2.83;1.70;;;19.70;99.90;;;;;;6701637;88;20646;-82
2021/07/25 23:37:04;;;;;;;2.78;1.80;;;19.70;99.90;;;;;;6692614;88;20336;-76
2021/07/25 23:47:05;;;;;;;3.62;2.00;;;19.70;99.90;;;;;;6681587;88;20197;-78
2021/07/25 23:57:05;;;;;;;4.28;1.80;;;19.60;99.90;;;;;;6681641;88;20211;-78
